createdAt,value
2022-11-04T05:04:05.279Z,97765.63
2022-11-04T05:08:16.768Z,97766.22
2022-11-04T05:12:48.244Z,97763.78
2022-11-04T05:16:59.728Z,97765.22
2022-11-04T05:21:14.212Z,97773.84
2022-11-04T05:25:25.785Z,97767.66
2022-11-04T05:29:37.280Z,97766.69
2022-11-04T05:33:48.840Z,97770.88
2022-11-04T05:38:00.859Z,97775.09
2022-11-04T05:42:12.342Z,97773.47
2022-11-04T05:46:24.153Z,97777.69
2022-11-04T05:50:35.685Z,97782.66
2022-11-04T05:54:47.438Z,97775.19
2022-11-04T05:58:58.951Z,97778.41
2022-11-04T06:03:13.553Z,97782.53
2022-11-04T06:07:27.745Z,97778.34
2022-11-04T06:11:39.392Z,97784.78
2022-11-04T06:15:50.876Z,97795.91
2022-11-04T06:20:02.361Z,97787.66
2022-11-04T06:24:13.866Z,97799.31
2022-11-04T06:28:25.344Z,97800.03
2022-11-04T06:32:36.911Z,97801.94
2022-11-04T06:36:51.681Z,97808.13
2022-11-04T06:45:15.491Z,97805.25
2022-11-04T06:49:27.018Z,97808.13
2022-11-04T06:53:38.563Z,97793.22
2022-11-04T06:57:50.065Z,97791.28
2022-11-04T07:02:01.803Z,97786.41
2022-11-04T07:06:13.389Z,97787.13
2022-11-04T07:10:24.877Z,97794.31
2022-11-04T07:14:36.438Z,97796.03
2022-11-04T07:18:49.348Z,97790.63
2022-11-04T07:23:00.895Z,97808.69
2022-11-04T07:27:12.453Z,97807.25
2022-11-04T07:31:23.976Z,97808.06
2022-11-04T07:35:36.424Z,97806.19
2022-11-04T07:39:47.999Z,97813.88
2022-11-04T07:44:01.274Z,97834.69
2022-11-04T07:48:13.524Z,97837.06
2022-11-04T07:52:25.463Z,97837.31
2022-11-04T07:56:37.028Z,97837.31
2022-11-04T08:00:49.668Z,97832.75
2022-11-04T08:05:01.518Z,97825.56
2022-11-04T08:09:13.128Z,97822.84
2022-11-04T08:13:28.455Z,97823.75
2022-11-04T08:17:40.197Z,97823.22
2022-11-04T08:21:51.736Z,97821.94
2022-11-04T08:26:08.671Z,97825.81
2022-11-04T08:30:20.527Z,97831.66
2022-11-04T08:34:32.032Z,97829.41
2022-11-04T08:38:43.834Z,97833.25
2022-11-04T08:42:55.348Z,97826.88
2022-11-04T08:47:06.925Z,97817.31
2022-11-04T08:51:22.109Z,97802.19
2022-11-04T08:55:33.659Z,97799.91
2022-11-04T08:59:45.437Z,97808.81
2022-11-04T09:03:57.169Z,97809.44
2022-11-04T09:08:09.006Z,97802.00
2022-11-04T09:12:20.609Z,97806.78
2022-11-04T09:16:33.640Z,97796.50
2022-11-04T09:20:45.339Z,97796.72
2022-11-04T09:24:57.035Z,97803.69
2022-11-04T09:29:09.987Z,97807.69
2022-11-04T09:33:21.592Z,97798.69
2022-11-04T09:37:33.174Z,97802.22
2022-11-04T09:42:06.286Z,97800.81
2022-11-04T09:46:18.105Z,97797.56
2022-11-04T09:50:36.029Z,97797.06
2022-11-04T09:54:58.819Z,97801.22
2022-11-04T09:59:14.872Z,97813.34
2022-11-04T10:03:35.555Z,97809.16
2022-11-04T10:08:02.412Z,97817.75
2022-11-04T10:12:46.649Z,97811.81
2022-11-04T10:17:32.430Z,97814.25
2022-11-04T10:21:58.547Z,97818.97
2022-11-04T10:26:19.482Z,97821.66
2022-11-04T10:30:33.691Z,97813.34
2022-11-04T10:34:55.010Z,97811.63
2022-11-04T10:39:18.278Z,97824.63
2022-11-04T10:43:37.205Z,97824.03
2022-11-04T10:48:00.351Z,97828.25
2022-11-04T10:52:11.929Z,97827.38
2022-11-04T10:56:51.458Z,97830.16
2022-11-04T11:01:29.119Z,97831.25
2022-11-04T11:05:40.894Z,97827.94
2022-11-04T11:09:57.150Z,97832.41
2022-11-04T11:14:17.788Z,97824.41
2022-11-04T11:18:29.493Z,97834.06
2022-11-04T11:22:45.533Z,97827.41
2022-11-04T11:26:59.799Z,97829.97
2022-11-04T11:31:23.306Z,97825.78
2022-11-04T11:35:41.971Z,97817.88
2022-11-04T11:39:53.491Z,97822.06
2022-11-04T11:44:31.690Z,97816.44
2022-11-04T11:48:50.254Z,97826.88
2022-11-04T11:53:16.895Z,97826.25
2022-11-04T12:02:50.451Z,97818.84
2022-11-04T12:12:22.217Z,97828.38
2022-11-04T12:17:01.550Z,97825.56
2022-11-04T12:21:21.010Z,97818.16
2022-11-04T12:26:00.924Z,97817.94
2022-11-04T12:30:23.729Z,97820.34
2022-11-04T12:34:58.093Z,97825.50
2022-11-04T12:39:44.214Z,97821.47
2022-11-04T12:44:06.205Z,97834.94
2022-11-04T12:48:37.195Z,97844.75
2022-11-04T12:53:07.846Z,97841.59
2022-11-04T12:57:27.387Z,97840.63
2022-11-04T13:01:53.078Z,97843.09
2022-11-04T13:06:12.752Z,97843.31
2022-11-04T13:10:33.325Z,97847.16
2022-11-04T13:14:47.199Z,97842.31
2022-11-04T13:18:59.849Z,97844.91
2022-11-04T13:23:24.446Z,97847.09
2022-11-04T13:27:47.353Z,97852.34
2022-11-04T13:32:11.043Z,97861.53
2022-11-04T13:37:07.252Z,97867.75
2022-11-04T13:41:45.652Z,97868.53
2022-11-04T13:45:57.927Z,97871.53
2022-11-04T13:50:28.739Z,97875.97
2022-11-04T13:54:52.951Z,97886.44
2022-11-04T13:59:18.890Z,97881.56
2022-11-04T14:03:36.510Z,97887.34
2022-11-04T14:08:02.979Z,97889.94
2022-11-04T14:12:14.449Z,97897.16
2022-11-04T14:16:25.856Z,97909.63
2022-11-04T14:20:37.424Z,97904.19
2022-11-04T14:24:56.449Z,97919.47
2022-11-04T14:29:15.480Z,97926.94
2022-11-04T14:33:56.400Z,97934.72
2022-11-04T14:38:24.550Z,97941.81
2022-11-04T14:42:45.866Z,97938.81
2022-11-04T14:47:16.928Z,97948.47
2022-11-04T14:51:32.440Z,97951.88
2022-11-04T14:55:43.954Z,97956.06
2022-11-04T14:59:55.490Z,97958.28
2022-11-04T15:04:18.115Z,97961.53
2022-11-04T15:08:43.731Z,97973.97
2022-11-04T15:13:01.523Z,97976.16
2022-11-04T15:17:19.084Z,97984.75
2022-11-04T15:21:30.607Z,97978.72
2022-11-04T15:25:47.881Z,97993.53
2022-11-04T15:30:06.792Z,97999.50
2022-11-04T15:34:18.884Z,98005.09
2022-11-04T15:38:32.193Z,98017.56
2022-11-04T15:42:45.377Z,98025.34
2022-11-04T15:46:59.717Z,98021.84
2022-11-04T15:51:14.415Z,98027.44
2022-11-04T15:55:27.623Z,98035.22
2022-11-04T15:59:44.829Z,98030.50
2022-11-04T16:03:59.087Z,98044.03
2022-11-04T16:08:20.201Z,98045.09
2022-11-04T16:12:36.354Z,98049.44
2022-11-04T16:16:50.484Z,98052.16
2022-11-04T16:21:07.221Z,98053.22
2022-11-04T16:25:23.504Z,98061.34
2022-11-04T16:29:37.424Z,98075.81
2022-11-04T16:33:50.123Z,98089.22
2022-11-04T16:38:02.209Z,98085.88
2022-11-04T16:42:15.606Z,98091.63
2022-11-04T16:46:27.163Z,98101.94
2022-11-04T16:50:38.663Z,98112.59
2022-11-04T16:54:50.207Z,98116.16
2022-11-04T16:59:01.702Z,98121.13
2022-11-04T17:03:22.694Z,98132.53
2022-11-04T17:07:52.246Z,98136.78
2022-11-04T17:12:06.077Z,98139.63
2022-11-04T17:16:43.721Z,98149.63
2022-11-04T17:20:55.460Z,98155.03
2022-11-04T17:25:17.764Z,98163.81
2022-11-04T17:29:29.912Z,98167.41
2022-11-04T17:33:41.398Z,98174.59
2022-11-04T17:37:54.392Z,98179.00
2022-11-04T17:42:24.623Z,98183.41
2022-11-04T17:46:39.007Z,98185.84
2022-11-04T17:50:50.516Z,98193.84
2022-11-04T17:55:05.025Z,98194.66
2022-11-04T17:59:17.210Z,98208.69
2022-11-04T18:03:30.507Z,98213.44
2022-11-04T18:07:44.095Z,98227.28
2022-11-04T18:12:14.484Z,98233.47
2022-11-04T18:16:26.521Z,98241.75
2022-11-04T18:20:38.114Z,98246.34
2022-11-04T18:24:49.867Z,98242.72
2022-11-04T18:29:02.053Z,98245.88
2022-11-04T18:33:13.627Z,98250.28
2022-11-04T18:37:25.181Z,98259.72
2022-11-04T18:41:39.592Z,98262.66
2022-11-04T18:45:53.370Z,98259.75
2022-11-04T18:50:05.169Z,98261.41
2022-11-04T18:54:16.681Z,98265.78
2022-11-04T18:58:31.305Z,98263.34
2022-11-04T19:02:43.272Z,98272.00
2022-11-04T19:06:54.898Z,98278.19
2022-11-04T19:11:28.377Z,98284.22
2022-11-04T19:15:39.907Z,98288.63
2022-11-04T19:19:51.541Z,98294.34
2022-11-04T19:24:06.454Z,98293.72
2022-11-04T19:28:35.055Z,98299.38
2022-11-04T19:32:49.421Z,98318.94
2022-11-04T19:37:00.921Z,98315.72
2022-11-04T19:41:35.551Z,98319.13
2022-11-04T19:45:49.422Z,98319.28
2022-11-04T19:50:00.914Z,98324.69
2022-11-04T19:54:13.303Z,98340.81
2022-11-04T19:58:24.860Z,98341.97
2022-11-04T20:02:36.471Z,98347.19
2022-11-04T20:06:48.090Z,98349.50
2022-11-04T20:11:03.004Z,98360.38
2022-11-04T20:15:14.702Z,98365.78
2022-11-04T20:19:26.304Z,98372.94
2022-11-04T20:23:38.406Z,98375.72
2022-11-04T20:27:49.933Z,98388.25
2022-11-04T20:32:01.474Z,98388.91
2022-11-04T20:36:16.000Z,98395.78
2022-11-04T20:40:27.612Z,98400.00
2022-11-04T20:44:39.197Z,98406.19
2022-11-04T20:48:51.367Z,98408.63
2022-11-04T20:53:02.861Z,98414.63
2022-11-04T20:57:14.337Z,98424.91
2022-11-04T21:01:28.796Z,98430.94
2022-11-04T21:05:40.398Z,98436.47
2022-11-04T21:09:52.001Z,98455.22
2022-11-04T21:14:04.306Z,98461.88
2022-11-04T21:18:15.846Z,98469.06
2022-11-04T21:22:27.327Z,98472.28
2022-11-04T21:26:38.916Z,98474.91
2022-11-04T21:30:53.236Z,98479.78
2022-11-04T21:35:05.226Z,98487.25
2022-11-04T21:39:17.084Z,98495.91
2022-11-04T21:43:28.743Z,98500.28
2022-11-04T21:47:40.458Z,98505.50
2022-11-04T21:51:51.977Z,98509.09
2022-11-04T21:56:05.548Z,98511.38
2022-11-04T22:00:17.326Z,98510.56
2022-11-04T22:04:28.927Z,98516.56
2022-11-04T22:08:53.839Z,98520.16
2022-11-04T22:13:05.396Z,98520.03
2022-11-04T22:17:16.939Z,98515.28
2022-11-04T22:21:30.053Z,98523.91
2022-11-04T22:25:45.853Z,98527.19
